Aérodrome :
LOGIN :

S'inscrire | Disclaimer

   EN    FR    IT 

 










Légende :    VFR   VFR Marginal   IFR   IFR Intensif   IFR Très Intensif
Visi : 
Plafond : 
>= 8 km
>= 3000ft
5 à 8 km
1000 à 3000 ft
1500m à 5 km
500 à 1000 ft
800 à 1500m
200 à 500 ft
< 800m
< 200 ft
Symboles :   Orages  Brouillard  Fortes neiges  Fortes précipitations  Vent > 20 kt
SIGMETs :   Divers  Orages  Givrage  Turbulence  Onde Orograph.  Cendres Volcan.







- Altitude de l'aérodrome : 137 ft


LIPS - Istrana AFB Treviso

DERNIER METAR :
  • 191816Z 07004KT 9999 TS FEW025CB SCT070 26/22 Q1012 RMK BKN BKN200 VIS MIN 9999 WIND THR26 08004KT WIND THR08 09004KT BLU

METARs EXPIRÉS :
  • 191755Z 07006KT 9999 FEW025CB 27/22 Q1011 RMK BKN BKN200 VIS MIN 9999 WIND THR26 06005KT WIND THR08 07006KT BLU
  • 191655Z 06005KT 9999 FEW025 28/22 Q1012 RMK BKN BKN200 VIS MIN 9999 WIND THR26 07005KT WIND THR08 06007KT BLU
  • 191555Z 09006KT 9999 VCTS -RA FEW030CB SCT100 29/21 Q1012 RMK BKN BKN200 VIS MIN 9999 WIND THR26 07004KT WIND THR08 09006KT BLU

TAF TAF LIPS
Valide du 19 à 18h jusqu'au 20 à 03h UTC


191700Z 1918/2003 06005KT 9999 FEW030 SCT060
TEMPO 1918/1924 5000 TSRA FEW030CB BKN040
Pas de NOTAMs connus pour ce terrain.
2 SIGMETs publiés pour la FIR Milano (LIMM) :
 
Orages noyés dans la masse
LIMM SIGMET 9 VALID 191610/192010 LIMM- LIMM MILANO FIR EMBD TS FCST WI N4711 E01220 - N4646 E01234 - N4636 E01341 - N4612 E01343 - N4554 E01334 - N4549 E01255 - N4510 E01142 - N4519 E01009 - N4538 E00900 - N4606 E00842 - N4629 E00905 - N4658 E01030 - N4711 E01220 TOP FL390 STNR NC=
Orages en lignes de grains
LIMM SIGMET 10 VALID 191745/191945 LIMM- LIMM MILANO FIR SQL TS OBS WI N4650 E01214 - N4638 E01259 - N4621 E01256 - N4601 E01153 - N4545 E01100 - N4541 E01022 - N4543 E00912 - N4608 E00925 - N4614 E01019 - N4650 E01214 TOP FL400 MOV SSE NC=



MET'MAP, la Météo Aéronautique d'un coup d'oeil ! - Copyright ORBIFLY Décembre 2007 - Disclaimer

ORBIFLY MET'MAP TEAM :

Programmation & Développement : Alexandra Zaïnal
Conception & Développement : Baudouin d'Aumeries
Co-Programmation & Développement : Marc-Olivier Méhu
Soutien technique & logistique : Manuel Goepfert

Contact : metmap@orbifly.com




SOURCES & CREDITS :

   NOAA